Terminal Aerodrome Forecast
Issued by NWS Shreveport, LA

Home | Current Version | Previous Version | Text Only | Print | Product List | Glossary On
Versions: 1 2 3 4 5 6 7 8 9 10 11 12 13 14 15 16
000
FTUS44 KSHV 181100
TAFSHV
TAF
KSHV 181132Z 1812/1912 05006KT P6SM VCSH OVC007
      TEMPO 1812/1816 5SM -RA BR OVC010
     FM181700 06006KT P6SM OVC010
     FM190100 06004KT P6SM OVC007
     FM190600 05005KT P6SM VCSH OVC007
      TEMPO 1909/1912 5SM -SHRA BR OVC004=

USA.gov is the U.S. government's official web portal to all federal, state and local government web resources and services.